»·PEaware :: N117SB KDEN-KGJT

N117SB :: KDEN-KGJT

FLIGHT INFORMATION

Flight Status: Arrived
Operator: Privately registered:
United States
More flights under this callsign
Pilot: Dean S. (16265)
Aircraft: DIAMOND DA-42 TWINSTAR
(DA42)
More flights by this aircraft type
Origin: KDEN Denver Intl
United States
Destination: KGJT Walker
United States
More flights between these airports :: More routes between these airports
Route: SXW
File this flight plan on PilotEdge
Remarks:
Altitude:
(Current/Filed)
14,500ft
Speed:
(Current/Filed)
160kts
Departed: 11-Jan-18 09:42 AM
Arrived: 11-Jan-18 10:56 AM
Distance/Time
Traveled:
184nm/1:13
Distance/Time
To Go:
Arrived

Flight Plot

Page will automatically refresh every two minutes.

Flight plan parsing failed; only flown route is shown


Map Options




Map Legend


Flown Route
Filed Route
Departure Airport
Arrival Airport
Navaid (VOR, NDB)
Fix

Horizontal Profiles

Position Reports

Time Latitude Longitude Heading Altitude Ground
Speed
11-Jan-18 09:25 39.829289 -104.674603 180 5434ft 0kts
11-Jan-18 09:26 39.829289 -104.674603 180 5434ft 0kts
11-Jan-18 09:27 39.829228 -104.674608 185 5434ft 0kts
11-Jan-18 09:28 39.829228 -104.674608 185 5434ft 0kts
11-Jan-18 09:29 39.829228 -104.674608 185 5434ft 0kts
11-Jan-18 09:30 39.829228 -104.674608 185 5434ft 0kts
11-Jan-18 09:31 39.829228 -104.674608 185 5434ft 0kts
11-Jan-18 09:32 39.829228 -104.674608 185 5434ft 0kts
11-Jan-18 09:33 39.829228 -104.674608 185 5434ft 0kts
11-Jan-18 09:34 39.829228 -104.674608 185 5434ft 0kts
11-Jan-18 09:35 39.829228 -104.674608 185 5434ft 0kts
11-Jan-18 09:36 39.829303 -104.674793 47 5434ft 10kts
11-Jan-18 09:37 39.829433 -104.671554 119 5434ft 11kts
11-Jan-18 09:38 39.828454 -104.668006 90 5434ft 13kts
11-Jan-18 09:39 39.829014 -104.663731 29 5434ft 10kts
11-Jan-18 09:40 39.831430 -104.662642 3 5434ft 14kts
11-Jan-18 09:41 39.837519 -104.662515 0 5434ft 26kts
11-Jan-18 09:42 39.844807 -104.662468 0 5434ft 25kts
11-Jan-18 09:43 39.851668 -104.662385 356 5434ft 24kts
11-Jan-18 09:44 39.858237 -104.662326 359 5434ft 23kts
11-Jan-18 09:45 39.861111 -104.661699 87 5434ft 0kts
11-Jan-18 09:46 39.861111 -104.661696 87 5434ft 0kts
11-Jan-18 09:47 39.860844 -104.660265 155 5434ft 12kts
11-Jan-18 09:48 39.840085 -104.660597 180 5794ft 111kts
11-Jan-18 09:49 39.822816 -104.684966 253 7224ft 104kts
11-Jan-18 09:50 39.814464 -104.721706 253 8510ft 117kts
11-Jan-18 09:51 39.821637 -104.773599 284 8788ft 152kts
11-Jan-18 09:52 39.830976 -104.822859 283 9941ft 133kts
11-Jan-18 09:53 39.839281 -104.868825 279 11127ft 129kts
11-Jan-18 09:54 39.839232 -104.915748 264 12331ft 130kts
11-Jan-18 09:55 39.835244 -104.962937 263 13531ft 132kts
11-Jan-18 09:56 39.830768 -105.011679 262 14532ft 147kts
11-Jan-18 09:57 39.825424 -105.068954 262 14565ft 163kts
11-Jan-18 09:58 39.819926 -105.127520 262 14561ft 163kts
11-Jan-18 09:59 39.814401 -105.186397 262 14553ft 163kts
11-Jan-18 10:00 39.808874 -105.245036 262 14549ft 163kts
11-Jan-18 10:01 39.803310 -105.303759 262 14541ft 163kts
11-Jan-18 10:02 39.797726 -105.362441 262 14519ft 164kts
11-Jan-18 10:03 39.792107 -105.421170 262 14500ft 163kts
11-Jan-18 10:04 39.786186 -105.480015 262 14484ft 163kts
11-Jan-18 10:05 39.780438 -105.538704 262 14469ft 163kts
11-Jan-18 10:06 39.774701 -105.597640 262 14432ft 164kts
11-Jan-18 10:07 39.768951 -105.656478 262 14413ft 164kts
11-Jan-18 10:08 39.763695 -105.710078 262 15468ft 139kts
11-Jan-18 10:09 39.758879 -105.759215 262 16366ft 147kts
11-Jan-18 10:10 39.753081 -105.816966 262 16294ft 164kts
11-Jan-18 10:11 39.747188 -105.875654 262 16294ft 163kts
11-Jan-18 10:12 39.741278 -105.934473 262 16294ft 163kts
11-Jan-18 10:13 39.735361 -105.993098 262 16294ft 163kts
11-Jan-18 10:14 39.729369 -106.051890 262 16294ft 163kts
11-Jan-18 10:15 39.723371 -106.110474 262 16294ft 163kts
11-Jan-18 10:16 39.718227 -106.159283 261 16294ft 163kts
11-Jan-18 10:17 39.711052 -106.227808 262 16294ft 163kts
11-Jan-18 10:18 39.705989 -106.276641 262 16294ft 165kts
11-Jan-18 10:19 39.699686 -106.337135 262 16294ft 170kts
11-Jan-18 10:20 39.692230 -106.408264 262 16294ft 170kts
11-Jan-18 10:21 39.686812 -106.459658 262 16199ft 174kts
11-Jan-18 10:22 39.680255 -106.521611 262 16192ft 171kts
11-Jan-18 10:23 39.673760 -106.582761 261 16192ft 171kts
11-Jan-18 10:24 39.667215 -106.644026 261 16192ft 171kts
11-Jan-18 10:25 39.660626 -106.705035 261 16192ft 171kts
11-Jan-18 10:26 39.654020 -106.766026 261 16192ft 171kts
11-Jan-18 10:27 39.647381 -106.827238 261 16192ft 171kts
11-Jan-18 10:28 39.640745 -106.888221 261 16192ft 171kts
11-Jan-18 10:29 39.633756 -106.951898 261 15765ft 184kts
11-Jan-18 10:30 39.622926 -107.017397 246 15268ft 187kts
11-Jan-18 10:31 39.601400 -107.078766 246 14770ft 187kts
11-Jan-18 10:32 39.580916 -107.140909 247 14269ft 187kts
11-Jan-18 10:33 39.560762 -107.202880 246 13738ft 188kts
11-Jan-18 10:34 39.539592 -107.268034 247 12559ft 198kts
11-Jan-18 10:35 39.519357 -107.330699 247 12115ft 174kts
11-Jan-18 10:36 39.501521 -107.386153 247 12117ft 163kts
11-Jan-18 10:37 39.484020 -107.440072 247 12118ft 161kts
11-Jan-18 10:38 39.466583 -107.493539 247 12119ft 161kts
11-Jan-18 10:39 39.449121 -107.546951 247 12119ft 161kts
11-Jan-18 10:40 39.431576 -107.600497 247 12119ft 161kts
11-Jan-18 10:41 39.414072 -107.653842 247 12119ft 161kts
11-Jan-18 10:42 39.396483 -107.707358 246 12119ft 161kts
11-Jan-18 10:43 39.378898 -107.760636 246 12119ft 161kts
11-Jan-18 10:44 39.361006 -107.813737 246 12119ft 161kts
11-Jan-18 10:45 39.343362 -107.867188 246 12119ft 161kts
11-Jan-18 10:46 39.325442 -107.921329 246 11717ft 169kts
11-Jan-18 10:47 39.306520 -107.978182 246 11018ft 172kts
11-Jan-18 10:48 39.287599 -108.035001 246 10320ft 172kts
11-Jan-18 10:49 39.264082 -108.084689 233 10115ft 153kts
11-Jan-18 10:50 39.239560 -108.130148 236 9817ft 167kts
11-Jan-18 10:51 39.213304 -108.183251 238 9125ft 174kts
11-Jan-18 10:52 39.190713 -108.234662 241 8414ft 159kts
11-Jan-18 10:53 39.172381 -108.282587 245 7727ft 125kts
11-Jan-18 10:54 39.160092 -108.320061 248 7097ft 105kts
11-Jan-18 10:55 39.144374 -108.349471 228 7061ft 96kts
11-Jan-18 10:56 39.127138 -108.376092 232 6974ft 93kts
11-Jan-18 10:57 39.112565 -108.401518 236 6907ft 80kts
11-Jan-18 10:58 39.102558 -108.427322 252 6079ft 81kts
11-Jan-18 10:59 39.098435 -108.455690 265 5542ft 77kts
11-Jan-18 11:00 39.102403 -108.483854 295 5252ft 88kts
11-Jan-18 11:01 39.116558 -108.510898 306 4924ft 88kts
11-Jan-18 11:02 39.123511 -108.524773 229 4826ft 0kts
11-Jan-18 11:03 39.123328 -108.526917 214 4826ft 9kts

Navigation Log

Ident Type
Flight plan parsing failed, navigation log unavailable